Time;durP1;ratioP1;P1;durP2;ratioP2;P2;SDS_P1;SDS_P2;PMS_P1;PMS_P2;Temp;Humidity;BMP_temperature;BMP_pressure;BME280_temperature;BME280_humidity;BME280_pressure;Samples;Min_cycle;Max_cycle;Signal;HPM_P1;HPM_P2
2023/04/03 00:00:42;;;;;;;;;;;;;;;1.84;68.69;102536.49;107537;1255;60779;-78
2023/04/03 00:03:18;;;;;;;;;;;;;;;1.82;68.83;102540.13;107438;1255;124188;-79
2023/04/03 00:05:45;;;;;;;;;;;;;;;1.79;68.64;102538.14;107663;1256;65551;-79
2023/04/03 00:08:12;;;;;;;;;;;;;;;1.77;68.58;102548.02;107188;1256;124978;-80
2023/04/03 00:10:39;;;;;;;;;;;;;;;1.79;68.44;102550.41;107449;1256;62043;-80
2023/04/03 00:13:07;;;;;;;;;;;;;;;1.82;68.34;102550.20;107628;1256;60612;-79
2023/04/03 00:15:34;;;;;;;;;;;;;;;1.85;68.01;102548.58;107520;1256;124538;-80
2023/04/03 00:18:01;;;;;;;;;;;;;;;1.86;67.79;102547.77;107950;1256;65503;-80
2023/04/03 00:20:28;;;;;;;;;;;;;;;1.85;67.75;102547.69;107751;1259;124755;-80
2023/04/03 00:22:55;;;;;;;;;;;;;;;1.82;67.40;102551.73;107723;1256;62063;-80
2023/04/03 00:25:22;;;;;;;;;;;;;;;1.79;67.16;102554.95;107811;1256;60879;-78
2023/04/03 00:27:49;;;;;;;;;;;;;;;1.80;67.00;102550.13;107774;1256;124816;-79
2023/04/03 00:30:16;;;;;;;;;;;;;;;1.80;66.98;102557.95;107794;1255;65780;-80
2023/04/03 00:32:43;;;;;;;;;;;;;;;1.77;66.65;102554.90;107784;1256;125405;-80
2023/04/03 00:35:11;;;;;;;;;;;;;;;1.74;66.67;102555.16;107874;1255;61867;-80
2023/04/03 00:37:38;;;;;;;;;;;;;;;1.72;66.81;102553.79;107724;1256;61086;-81
2023/04/03 00:40:06;;;;;;;;;;;;;;;1.68;66.71;102553.45;107516;1256;124347;-80
2023/04/03 00:42:33;;;;;;;;;;;;;;;1.66;66.33;102558.95;107740;1256;66536;-79
2023/04/03 00:45:00;;;;;;;;;;;;;;;1.65;66.51;102552.94;107620;1257;124944;-78
2023/04/03 00:47:27;;;;;;;;;;;;;;;1.64;66.44;102562.73;107580;1259;60826;-78
2023/04/03 00:49:54;;;;;;;;;;;;;;;1.65;66.51;102553.20;108968;1254;59827;-78
2023/04/03 00:52:22;;;;;;;;;;;;;;;1.63;66.20;102547.15;108804;1260;124039;-79
2023/04/03 00:54:50;;;;;;;;;;;;;;;1.58;66.22;102553.04;108864;1254;65173;-79
2023/04/03 00:57:17;;;;;;;;;;;;;;;1.53;66.19;102555.38;108854;1256;124126;-79
2023/04/03 00:59:49;;;;;;;;;;;;;;;1.52;66.23;102557.52;109049;1254;59818;-79
2023/04/03 01:02:16;;;;;;;;;;;;;;;1.51;65.81;102557.95;108908;1254;124340;-79
2023/04/03 01:04:43;;;;;;;;;;;;;;;1.51;65.76;102557.46;109195;1253;75856;-81
2023/04/03 01:07:11;;;;;;;;;;;;;;;1.53;65.77;102555.77;107868;1254;65561;-80
2023/04/03 01:09:38;;;;;;;;;;;;;;;1.52;65.78;102557.77;107890;1257;124209;-80
2023/04/03 01:12:17;;;;;;;;;;;;;;;1.49;65.58;102558.09;107925;1253;60726;-80
2023/04/03 01:14:46;;;;;;;;;;;;;;;1.46;65.45;102561.54;108031;1254;124754;-81
2023/04/03 01:17:31;;;;;;;;;;;;;;;1.46;65.32;102559.61;108037;1253;75984;-81
2023/04/03 01:20:17;;;;;;;;;;;;;;;1.45;65.45;102560.67;107928;1253;65815;-81
2023/04/03 01:22:51;;;;;;;;;;;;;;;1.43;65.45;102564.69;107640;1254;72454;-80
2023/04/03 01:25:18;;;;;;;;;;;;;;;1.43;65.36;102564.67;107726;1253;60887;-80
2023/04/03 01:27:45;;;;;;;;;;;;;;;1.43;65.11;102564.56;107927;1254;125010;-80
2023/04/03 01:30:13;;;;;;;;;;;;;;;1.44;64.99;102572.50;107961;1253;73490;-78
2023/04/03 01:32:40;;;;;;;;;;;;;;;1.42;64.58;102573.09;107857;1254;124292;-81
2023/04/03 01:35:07;;;;;;;;;;;;;;;1.41;64.47;102568.27;108269;1254;72739;-80
2023/04/03 01:37:34;;;;;;;;;;;;;;;1.40;64.42;102571.60;108136;1253;62028;-78
2023/04/03 01:40:01;;;;;;;;;;;;;;;1.37;64.41;102572.42;107767;1254;124255;-78
2023/04/03 01:42:29;;;;;;;;;;;;;;;1.36;64.38;102573.39;107808;1253;75202;-78
2023/04/03 01:44:56;;;;;;;;;;;;;;;1.33;64.08;102576.91;108752;1253;124282;-78
2023/04/03 01:47:23;;;;;;;;;;;;;;;1.31;64.32;102575.17;108906;1254;71168;-78
2023/04/03 01:49:50;;;;;;;;;;;;;;;1.31;64.37;102578.14;109224;1253;59918;-78
2023/04/03 01:52:17;;;;;;;;;;;;;;;1.32;64.17;102574.30;109128;1253;124830;-78
2023/04/03 01:54:44;;;;;;;;;;;;;;;1.33;64.13;102577.65;109098;1253;75271;-78
2023/04/03 01:57:11;;;;;;;;;;;;;;;1.34;63.96;102575.52;108992;1253;124673;-78
2023/04/03 01:59:38;;;;;;;;;;;;;;;1.32;64.00;102578.94;109040;1253;72638;-79
2023/04/03 02:02:05;;;;;;;;;;;;;;;1.28;63.89;102583.21;109155;1253;60299;-81
2023/04/03 02:04:33;;;;;;;;;;;;;;;1.23;63.96;102579.64;108840;1257;124018;-80
2023/04/03 02:07:00;;;;;;;;;;;;;;;1.21;63.83;102581.19;107624;1253;75465;-80
2023/04/03 02:09:27;;;;;;;;;;;;;;;1.21;63.75;102580.66;107687;1253;124242;-81
2023/04/03 02:11:55;;;;;;;;;;;;;;;1.20;63.65;102584.39;109144;1253;73113;-81
2023/04/03 02:14:23;;;;;;;;;;;;;;;1.19;63.70;102584.95;109075;1253;124532;-80
2023/04/03 02:16:50;;;;;;;;;;;;;;;1.20;63.62;102585.17;107911;1253;62940;-81
2023/04/03 02:19:17;;;;;;;;;;;;;;;1.22;63.74;102593.25;107812;1253;75206;-81
2023/04/03 02:21:44;;;;;;;;;;;;;;;1.21;63.46;102592.27;107495;1253;124163;-81
2023/04/03 02:24:11;;;;;;;;;;;;;;;1.20;63.25;102597.03;107685;1253;72825;-79
2023/04/03 02:26:38;;;;;;;;;;;;;;;1.18;63.25;102598.58;107691;1254;124280;-79
2023/04/03 02:29:05;;;;;;;;;;;;;;;1.16;63.32;102596.14;107759;1254;62822;-79
2023/04/03 02:31:32;;;;;;;;;;;;;;;1.16;63.39;102596.98;107680;1259;75527;-79
2023/04/03 02:33:59;;;;;;;;;;;;;;;1.18;63.48;102599.70;107721;1256;124754;-78
2023/04/03 02:36:26;;;;;;;;;;;;;;;1.16;63.22;102599.30;107706;1257;72668;-79
2023/04/03 02:38:53;;;;;;;;;;;;;;;1.13;63.17;102599.67;109030;1253;124208;-78
2023/04/03 02:41:20;;;;;;;;;;;;;;;1.09;63.08;102603.63;108065;1253;61263;-78
2023/04/03 02:43:47;;;;;;;;;;;;;;;1.14;62.98;102603.92;108076;1253;75850;-78
2023/04/03 02:46:15;;;;;;;;;;;;;;;1.18;62.66;102603.09;108284;1253;124546;-78
2023/04/03 02:48:42;;;;;;;;;;;;;;;1.23;62.59;102606.05;108289;1253;71025;-79
2023/04/03 02:51:09;;;;;;;;;;;;;;;1.27;62.24;102617.36;107814;1254;124998;-80
2023/04/03 02:53:36;;;;;;;;;;;;;;;1.30;62.06;102607.59;107740;1253;62003;-80
2023/04/03 02:56:03;;;;;;;;;;;;;;;1.31;61.64;102607.05;107856;1254;75330;-80
2023/04/03 02:58:31;;;;;;;;;;;;;;;1.35;61.57;102604.98;107876;1253;124203;-80
2023/04/03 03:00:58;;;;;;;;;;;;;;;1.39;61.61;102609.45;107629;1255;72742;-80
2023/04/03 03:03:25;;;;;;;;;;;;;;;1.42;61.39;102612.13;107669;1256;125010;-80
2023/04/03 03:06:00;;;;;;;;;;;;;;;1.43;61.32;102613.84;107805;1255;62068;-80
2023/04/03 03:08:27;;;;;;;;;;;;;;;1.44;61.09;102627.59;107748;1256;125627;-80
2023/04/03 03:10:54;;;;;;;;;;;;;;;1.43;61.01;102622.31;107659;1256;65866;-80
2023/04/03 03:13:21;;;;;;;;;;;;;;;1.42;61.24;102623.60;107537;1256;71751;-80
2023/04/03 03:15:48;;;;;;;;;;;;;;;1.42;61.44;102615.46;107676;1256;124092;-80
2023/04/03 03:18:15;;;;;;;;;;;;;;;1.42;61.46;102616.19;107862;1256;61779;-80
2023/04/03 03:20:42;;;;;;;;;;;;;;;1.43;61.14;102623.52;107519;1256;124896;-80
2023/04/03 03:23:09;;;;;;;;;;;;;;;1.43;60.67;102620.92;107545;1259;65927;-80
2023/04/03 03:25:39;;;;;;;;;;;;;;;1.45;60.48;102621.58;107729;1256;72924;-80
2023/04/03 03:28:06;;;;;;;;;;;;;;;1.44;60.07;102624.48;107737;1256;124154;-80
2023/04/03 03:30:34;;;;;;;;;;;;;;;1.40;60.08;102621.61;107925;1256;60513;-80
2023/04/03 03:33:01;;;;;;;;;;;;;;;1.37;59.71;102625.91;107401;1260;124546;-81
2023/04/03 03:35:29;;;;;;;;;;;;;;;1.37;59.75;102628.48;107592;1260;67253;-82
2023/04/03 03:37:56;;;;;;;;;;;;;;;1.36;59.74;102630.29;107440;1255;72636;-81
2023/04/03 03:40:23;;;;;;;;;;;;;;;1.37;59.92;102625.17;107420;1255;124693;-81
2023/04/03 03:42:50;;;;;;;;;;;;;;;1.39;59.54;102629.38;107965;1255;60333;-81
2023/04/03 03:45:17;;;;;;;;;;;;;;;1.40;59.42;102628.44;107880;1255;124773;-81
2023/04/03 03:47:45;;;;;;;;;;;;;;;1.41;58.89;102631.25;107731;1256;66940;-81
2023/04/03 03:50:12;;;;;;;;;;;;;;;1.42;58.99;102628.27;107545;1256;71056;-81
2023/04/03 03:52:39;;;;;;;;;;;;;;;1.45;59.05;102635.57;107574;1255;60838;-80
2023/04/03 03:55:07;;;;;;;;;;;;;;;1.48;58.97;102636.58;107498;1256;61675;-81
2023/04/03 03:57:34;;;;;;;;;;;;;;;1.50;59.02;102635.73;107954;1255;124726;-81
2023/04/03 04:00:01;;;;;;;;;;;;;;;1.50;58.78;102643.21;107721;1256;67036;-81
2023/04/03 04:02:28;;;;;;;;;;;;;;;1.49;58.43;102641.73;108452;1259;125055;-78
2023/04/03 04:04:55;;;;;;;;;;;;;;;1.47;58.17;102640.50;107659;1254;60398;-79
2023/04/03 04:07:22;;;;;;;;;;;;;;;1.48;58.23;102638.11;107707;1255;60127;-79
2023/04/03 04:09:49;;;;;;;;;;;;;;;1.49;58.21;102641.54;107608;1257;124437;-81
2023/04/03 04:12:16;;;;;;;;;;;;;;;1.50;57.84;102655.82;107620;1258;66162;-79
2023/04/03 04:14:46;;;;;;;;;;;;;;;1.50;57.62;102644.77;107702;1256;124897;-81
2023/04/03 04:17:13;;;;;;;;;;;;;;;1.51;57.67;102652.23;107664;1256;62054;-80
2023/04/03 04:19:40;;;;;;;;;;;;;;;1.50;57.72;102652.49;107612;1255;61876;-80
2023/04/03 04:22:07;;;;;;;;;;;;;;;1.47;57.64;102660.52;107423;1256;124145;-81
2023/04/03 04:24:34;;;;;;;;;;;;;;;1.43;57.69;102656.40;107557;1256;65712;-82
2023/04/03 04:27:01;;;;;;;;;;;;;;;1.44;57.70;102661.27;107530;1256;124085;-81
2023/04/03 04:29:28;;;;;;;;;;;;;;;1.41;57.52;102656.07;107854;1258;62985;-79
2023/04/03 04:31:55;;;;;;;;;;;;;;;1.44;57.55;102665.09;107996;1254;61710;-80
2023/04/03 04:34:22;;;;;;;;;;;;;;;1.43;57.51;102671.23;108023;1255;124577;-82
2023/04/03 04:36:50;;;;;;;;;;;;;;;1.42;57.41;102667.88;108038;1256;66361;-81
2023/04/03 04:39:17;;;;;;;;;;;;;;;1.43;57.28;102668.11;108286;1256;124594;-79
2023/04/03 04:41:44;;;;;;;;;;;;;;;1.48;57.43;102664.33;108078;1255;60255;-82
2023/04/03 04:44:11;;;;;;;;;;;;;;;1.62;57.45;102673.66;108096;1256;60711;-80
2023/04/03 04:46:38;;;;;;;;;;;;;;;1.61;56.82;102676.53;107960;1256;124230;-82
2023/04/03 04:49:05;;;;;;;;;;;;;;;1.56;56.63;102671.25;107917;1256;65790;-81
2023/04/03 04:51:32;;;;;;;;;;;;;;;1.54;56.42;102680.10;107684;1255;124384;-81
2023/04/03 04:53:59;;;;;;;;;;;;;;;1.52;56.54;102674.70;107753;1256;60097;-83
2023/04/03 04:56:26;;;;;;;;;;;;;;;1.53;56.51;102674.78;107850;1257;124549;-80
2023/04/03 04:58:54;;;;;;;;;;;;;;;1.55;55.94;102691.58;108043;1256;74198;-83
2023/04/03 05:01:21;;;;;;;;;;;;;;;1.56;56.01;102676.39;107973;1255;65616;-83
2023/04/03 05:03:49;;;;;;;;;;;;;;;1.57;56.22;102686.70;108156;1256;124738;-80
2023/04/03 05:06:18;;;;;;;;;;;;;;;1.55;56.26;102685.52;108033;1254;60220;-82
2023/04/03 05:08:45;;;;;;;;;;;;;;;1.59;56.28;102693.69;108120;1256;124781;-82
2023/04/03 05:11:13;;;;;;;;;;;;;;;1.62;56.12;102692.52;108238;1256;75268;-82
2023/04/03 05:13:40;;;;;;;;;;;;;;;1.61;56.03;102697.48;108892;1256;66949;-80
2023/04/03 05:16:07;;;;;;;;;;;;;;;1.61;55.72;102705.08;108852;1256;124433;-80
2023/04/03 05:18:35;;;;;;;;;;;;;;;1.63;55.82;102699.94;108886;1254;60153;-80
2023/04/03 05:21:06;;;;;;;;;;;;;;;1.66;55.86;102694.15;107739;1256;124684;-79
2023/04/03 05:23:33;;;;;;;;;;;;;;;1.71;55.90;102695.82;108110;1255;72934;-79
2023/04/03 05:26:00;;;;;;;;;;;;;;;1.77;56.10;102697.23;107672;1257;67049;-79
2023/04/03 05:28:27;;;;;;;;;;;;;;;1.79;55.73;102695.84;107596;1256;124261;-80
2023/04/03 05:30:55;;;;;;;;;;;;;;;1.81;55.94;102694.63;107615;1256;62136;-79
2023/04/03 05:33:22;;;;;;;;;;;;;;;1.83;55.79;102693.10;107572;1255;124988;-79
2023/04/03 05:35:49;;;;;;;;;;;;;;;1.86;56.09;102699.78;107900;1255;74621;-80
2023/04/03 05:38:16;;;;;;;;;;;;;;;1.88;56.07;102707.96;108748;1256;124535;-80
2023/04/03 05:40:43;;;;;;;;;;;;;;;1.90;55.71;102707.05;108836;1256;71078;-79
2023/04/03 05:43:10;;;;;;;;;;;;;;;1.94;55.70;102703.39;107850;1260;62067;-79
2023/04/03 05:45:37;;;;;;;;;;;;;;;1.98;55.46;102711.91;107681;1255;124430;-79
2023/04/03 05:48:04;;;;;;;;;;;;;;;2.01;55.42;102714.28;107528;1259;74683;-79
2023/04/03 05:50:31;;;;;;;;;;;;;;;2.02;55.61;102714.20;107342;1255;124668;-79
2023/04/03 05:52:58;;;;;;;;;;;;;;;2.04;55.34;102716.83;107666;1256;71470;-79
2023/04/03 05:55:25;;;;;;;;;;;;;;;2.07;55.03;102717.81;107705;1262;61954;-78
2023/04/03 05:57:52;;;;;;;;;;;;;;;2.11;55.10;102721.22;107556;1259;124621;-80
2023/04/03 06:00:19;;;;;;;;;;;;;;;2.13;54.94;102722.98;107442;1254;74173;-80
2023/04/03 06:02:46;;;;;;;;;;;;;;;2.13;54.80;102713.70;107485;1253;124675;-80
2023/04/03 06:05:14;;;;;;;;;;;;;;;2.16;54.79;102712.21;107547;1253;72464;-80
2023/04/03 06:07:41;;;;;;;;;;;;;;;2.21;54.99;102721.77;107719;1254;61124;-80
2023/04/03 06:10:08;;;;;;;;;;;;;;;2.31;55.17;102717.04;107454;1253;125118;-80
2023/04/03 06:12:35;;;;;;;;;;;;;;;2.53;55.15;102714.79;107909;1254;75490;-80
2023/04/03 06:15:03;;;;;;;;;;;;;;;2.70;55.34;102717.30;108234;1253;124683;-80
2023/04/03 06:17:31;;;;;;;;;;;;;;;2.84;55.31;102720.09;108258;1258;72430;-80
2023/04/03 06:19:58;;;;;;;;;;;;;;;2.85;54.70;102729.08;108139;1253;62269;-80
2023/04/03 06:22:29;;;;;;;;;;;;;;;2.85;54.48;102727.88;107814;1254;124292;-80
2023/04/03 06:24:57;;;;;;;;;;;;;;;2.88;54.08;102732.30;107806;1253;73874;-80
2023/04/03 06:27:25;;;;;;;;;;;;;;;2.92;54.03;102731.27;107514;1253;124330;-80
2023/04/03 06:29:52;;;;;;;;;;;;;;;3.00;53.78;102729.80;107488;1253;73046;-80
2023/04/03 06:32:19;;;;;;;;;;;;;;;3.11;53.75;102737.57;107479;1254;124792;-81
2023/04/03 06:34:46;;;;;;;;;;;;;;;3.13;53.65;102743.60;107763;1256;60782;-80
2023/04/03 06:37:17;;;;;;;;;;;;;;;2.99;53.59;102745.37;107767;1254;74291;-80
2023/04/03 06:39:45;;;;;;;;;;;;;;;2.90;53.62;102747.00;107575;1253;124773;-81
2023/04/03 06:42:12;;;;;;;;;;;;;;;2.87;53.68;102756.52;107875;1254;70375;-79
2023/04/03 06:44:39;;;;;;;;;;;;;;;2.84;53.58;102755.34;107748;1254;124900;-80
2023/04/03 06:47:06;;;;;;;;;;;;;;;2.79;53.35;102754.90;107915;1254;61354;-80
2023/04/03 06:49:33;;;;;;;;;;;;;;;2.77;53.13;102754.52;107733;1254;74200;-80
2023/04/03 06:52:00;;;;;;;;;;;;;;;2.73;52.93;102766.33;107628;1253;124593;-80
2023/04/03 06:54:27;;;;;;;;;;;;;;;2.69;52.54;102760.62;107514;1254;72223;-80
2023/04/03 06:56:54;;;;;;;;;;;;;;;2.66;52.55;102770.06;107811;1253;124731;-80
2023/04/03 06:59:21;;;;;;;;;;;;;;;2.68;52.50;102772.06;107815;1254;61651;-80
2023/04/03 07:01:48;;;;;;;;;;;;;;;2.75;52.72;102776.52;107650;1254;75814;-80
2023/04/03 07:04:15;;;;;;;;;;;;;;;2.79;52.40;102780.16;107669;1254;124482;-80
2023/04/03 07:06:43;;;;;;;;;;;;;;;2.87;52.39;102774.85;107828;1253;72229;-80
2023/04/03 07:09:10;;;;;;;;;;;;;;;3.02;51.92;102772.48;107748;1254;124771;-80
2023/04/03 07:11:37;;;;;;;;;;;;;;;3.16;52.27;102774.40;107866;1254;60867;-80
2023/04/03 07:14:07;;;;;;;;;;;;;;;3.23;51.86;102771.21;107916;1254;73838;-80
2023/04/03 07:16:35;;;;;;;;;;;;;;;3.28;51.74;102781.22;107846;1254;123977;-80
2023/04/03 07:19:02;;;;;;;;;;;;;;;3.26;51.32;102782.20;108193;1253;70861;-80
2023/04/03 07:21:29;;;;;;;;;;;;;;;3.27;51.38;102780.10;107939;1253;124955;-78
2023/04/03 07:23:56;;;;;;;;;;;;;;;3.41;51.75;102776.38;107933;1254;60341;-78
2023/04/03 07:26:23;;;;;;;;;;;;;;;3.55;51.64;102774.10;107684;1259;124728;-78
2023/04/03 07:28:50;;;;;;;;;;;;;;;3.54;51.30;102779.80;107802;1254;66023;-80
2023/04/03 07:31:18;;;;;;;;;;;;;;;3.51;51.07;102777.30;108082;1253;72677;-78
2023/04/03 07:33:45;;;;;;;;;;;;;;;3.60;51.40;102777.00;107820;1259;124735;-80
2023/04/03 07:36:14;;;;;;;;;;;;;;;3.66;51.16;102782.41;107894;1254;60862;-78
2023/04/03 07:38:42;;;;;;;;;;;;;;;3.65;51.18;102781.23;107751;1254;124887;-79
2023/04/03 07:41:14;;;;;;;;;;;;;;;3.65;51.01;102784.57;107854;1254;64861;-79
2023/04/03 07:43:42;;;;;;;;;;;;;;;3.71;50.70;102781.91;108212;1259;71365;-79
2023/04/03 07:46:09;;;;;;;;;;;;;;;3.80;50.76;102790.70;109023;1253;124893;-78
2023/04/03 07:48:36;;;;;;;;;;;;;;;3.85;50.27;102788.83;109066;1254;59820;-79
2023/04/03 07:51:03;;;;;;;;;;;;;;;3.86;50.65;102785.96;109072;1253;126120;-79
2023/04/03 07:53:30;;;;;;;;;;;;;;;4.01;51.00;102788.23;109033;1254;65987;-79
2023/04/03 07:55:58;;;;;;;;;;;;;;;4.06;50.51;102789.58;109257;1254;71382;-79
2023/04/03 07:58:25;;;;;;;;;;;;;;;4.06;50.48;102791.52;108889;1253;124648;-79
2023/04/03 08:00:52;;;;;;;;;;;;;;;3.99;50.11;102792.98;108903;1253;60060;-79
2023/04/03 08:03:19;;;;;;;;;;;;;;;3.85;50.33;102793.19;108881;1253;126038;-79
2023/04/03 08:05:48;;;;;;;;;;;;;;;3.74;50.38;102791.17;109112;1253;67549;-79
2023/04/03 08:08:16;;;;;;;;;;;;;;;3.63;49.95;102799.10;109054;1253;124431;-80
2023/04/03 08:10:43;;;;;;;;;;;;;;;3.63;50.17;102795.88;109147;1253;59744;-79
2023/04/03 08:13:10;;;;;;;;;;;;;;;3.88;50.35;102803.34;109181;1253;60149;-79
2023/04/03 08:15:37;;;;;;;;;;;;;;;4.05;50.29;102802.20;108876;1253;124917;-80
2023/04/03 08:18:04;;;;;;;;;;;;;;;4.19;49.95;102802.33;109043;1254;67681;-79
2023/04/03 08:20:30;;;;;;;;;;;;;;;4.29;49.56;102801.38;108929;1253;124261;-79
2023/04/03 08:22:58;;;;;;;;;;;;;;;4.42;49.77;102801.91;108882;1253;60130;-80
2023/04/03 08:25:25;;;;;;;;;;;;;;;4.42;49.40;102798.84;108990;1254;60099;-79
2023/04/03 08:27:51;;;;;;;;;;;;;;;4.51;49.96;102805.33;109023;1253;124115;-80
2023/04/03 08:30:19;;;;;;;;;;;;;;;4.53;49.56;102801.80;108192;1253;65216;-79
2023/04/03 08:32:46;;;;;;;;;;;;;;;4.49;49.67;102807.54;108006;1253;124479;-79
2023/04/03 08:35:13;;;;;;;;;;;;;;;4.46;49.78;102811.88;108081;1253;62694;-79
2023/04/03 08:37:40;;;;;;;;;;;;;;;4.44;49.47;102810.25;108130;1253;61144;-79
2023/04/03 08:40:08;;;;;;;;;;;;;;;4.31;49.49;102815.27;108248;1253;124712;-79
2023/04/03 08:42:38;;;;;;;;;;;;;;;4.14;49.28;102814.20;108161;1254;65557;-79
2023/04/03 08:45:28;;;;;;;;;;;;;;;3.94;49.49;102814.07;107955;1258;124066;-80
2023/04/03 08:48:07;;;;;;;;;;;;;;;3.90;49.83;102815.80;107801;1259;62042;-79
2023/04/03 08:50:36;;;;;;;;;;;;;;;3.97;49.88;102814.54;107519;1254;124719;-80
2023/04/03 08:53:06;;;;;;;;;;;;;;;4.02;49.78;102812.33;107523;1259;74022;-80
2023/04/03 08:55:34;;;;;;;;;;;;;;;4.15;49.80;102808.40;107755;1254;67065;-80
2023/04/03 08:58:03;;;;;;;;;;;;;;;4.28;49.68;102809.67;107515;1253;124704;-80
2023/04/03 09:00:32;;;;;;;;;;;;;;;4.28;49.31;102808.30;107818;1253;61075;-80
2023/04/03 09:02:59;;;;;;;;;;;;;;;4.23;49.48;102802.23;107791;1254;124614;-80
2023/04/03 09:05:38;;;;;;;;;;;;;;;4.25;49.53;102798.27;107214;1255;75586;-80
2023/04/03 09:08:25;;;;;;;;;;;;;;;4.46;49.93;102796.17;107308;1259;66784;-80
2023/04/03 09:10:57;;;;;;;;;;;;;;;4.66;49.45;102800.80;107579;1257;71627;-80
2023/04/03 09:13:31;;;;;;;;;;;;;;;4.68;49.24;102804.61;107812;1254;61927;-80
2023/04/03 09:15:58;;;;;;;;;;;;;;;4.64;49.29;102794.72;108947;1253;124992;-80
2023/04/03 09:18:32;;;;;;;;;;;;;;;4.55;49.58;102797.64;109148;1253;75272;-80
2023/04/03 09:21:06;;;;;;;;;;;;;;;4.53;49.88;102804.20;108896;1254;124541;-80
2023/04/03 09:23:41;;;;;;;;;;;;;;;4.52;49.73;102801.66;109060;1254;73010;-79
2023/04/03 09:26:19;;;;;;;;;;;;;;;4.55;49.87;102799.18;109205;1257;60062;-80
2023/04/03 09:28:46;;;;;;;;;;;;;;;4.57;49.99;102798.67;108898;1260;60637;-80
2023/04/03 09:31:19;;;;;;;;;;;;;;;4.51;49.90;102798.86;108957;1259;75418;-80
2023/04/03 09:33:47;;;;;;;;;;;;;;;4.35;49.90;102798.23;108730;1253;124217;-79
2023/04/03 09:36:14;;;;;;;;;;;;;;;4.33;50.30;102800.67;108920;1254;73471;-79
2023/04/03 09:38:41;;;;;;;;;;;;;;;4.50;50.60;102797.60;109084;1254;124102;-79
2023/04/03 09:41:16;;;;;;;;;;;;;;;4.64;50.61;102794.02;108947;1254;253618;-79
2023/04/03 09:43:52;;;;;;;;;;;;;;;4.78;50.37;102797.27;108982;1253;75544;-79
2023/04/03 09:46:29;;;;;;;;;;;;;;;4.82;50.46;102788.88;108249;1254;124709;-80
2023/04/03 09:48:58;;;;;;;;;;;;;;;4.86;50.76;102782.92;107883;1261;71305;-80
2023/04/03 09:51:27;;;;;;;;;;;;;;;4.84;50.83;102786.42;107683;1254;124292;-79
2023/04/03 09:53:54;;;;;;;;;;;;;;;4.84;51.16;102791.83;107985;1259;61751;-79
2023/04/03 09:56:23;;;;;;;;;;;;;;;5.03;51.22;102792.10;107829;1253;125014;-79
2023/04/03 09:58:51;;;;;;;;;;;;;;;5.30;50.60;102796.37;108251;1254;65720;-80
2023/04/03 10:01:37;;;;;;;;;;;;;;;5.28;50.29;102790.46;108043;1254;71802;-79
2023/04/03 10:04:09;;;;;;;;;;;;;;;5.31;50.93;102784.36;107778;1256;124255;-79
2023/04/03 10:06:43;;;;;;;;;;;;;;;5.25;50.93;102789.19;107982;1260;60762;-81
2023/04/03 10:09:26;;;;;;;;;;;;;;;5.11;51.24;102782.09;107864;1259;124087;-80
2023/04/03 10:12:00;;;;;;;;;;;;;;;4.95;51.38;102788.33;108000;1256;65597;-80
2023/04/03 10:14:28;;;;;;;;;;;;;;;4.90;51.92;102782.35;107740;1259;124783;-80
2023/04/03 10:17:32;;;;;;;;;;;;;;;4.98;52.12;102777.77;108066;1254;60287;-80
2023/04/03 10:20:22;;;;;;;;;;;;;;;5.16;51.86;102778.30;107449;1261;60320;-80
2023/04/03 10:22:49;;;;;;;;;;;;;;;5.39;51.91;102775.42;107376;1260;74349;-80
2023/04/03 10:25:23;;;;;;;;;;;;;;;5.57;51.37;102779.17;107236;1261;67121;-79
2023/04/03 10:27:55;;;;;;;;;;;;;;;5.62;51.50;102776.02;106934;1265;124335;-79
2023/04/03 10:30:28;;;;;;;;;;;;;;;5.57;51.50;102779.52;107052;1264;60586;-79
2023/04/03 10:33:14;;;;;;;;;;;;;;;5.37;51.50;102784.39;107205;1263;61688;-79
2023/04/03 10:36:00;;;;;;;;;;;;;;;5.00;51.39;102782.33;107531;1261;75532;-80
2023/04/03 10:38:30;;;;;;;;;;;;;;;4.60;52.08;102791.80;107653;1262;65935;-80
2023/04/03 10:41:16;;;;;;;;;;;;;;;4.32;52.84;102785.30;107424;1261;73180;-79
2023/04/03 10:43:44;;;;;;;;;;;;;;;4.25;53.33;102791.47;107455;1260;62171;-79
2023/04/03 10:46:22;;;;;;;;;;;;;;;4.35;53.64;102777.52;107205;1263;124288;-79
2023/04/03 10:49:03;;;;;;;;;;;;;;;4.53;53.66;102784.08;107067;1262;75285;-79
2023/04/03 10:51:30;;;;;;;;;;;;;;;4.59;53.64;102780.73;107129;1261;124464;-80
2023/04/03 10:54:17;;;;;;;;;;;;;;;4.67;53.23;102785.98;107387;1259;71069;-80
2023/04/03 10:56:44;;;;;;;;;;;;;;;4.70;53.13;102776.27;107645;1260;124481;-80
2023/04/03 10:59:29;;;;;;;;;;;;;;;4.78;53.13;102780.32;107769;1259;62006;-80
2023/04/03 11:01:58;;;;;;;;;;;;;;;4.77;52.96;102778.21;107876;1253;74242;-80
2023/04/03 11:04:26;;;;;;;;;;;;;;;4.93;53.37;102777.70;108923;1254;124529;-80
2023/04/03 11:06:56;;;;;;;;;;;;;;;4.99;52.49;102780.98;109052;1253;73191;-80
2023/04/03 11:09:31;;;;;;;;;;;;;;;4.83;52.26;102792.96;109021;1259;124063;-80
2023/04/03 11:12:00;;;;;;;;;;;;;;;4.82;52.56;102781.75;109052;1253;60178;-80
2023/04/03 11:14:29;;;;;;;;;;;;;;;5.04;52.18;102815.30;108922;1254;75555;-81
2023/04/03 11:17:10;;;;;;;;;;;;;;;4.93;51.40;102784.68;109019;1254;67460;-81
2023/04/03 11:19:52;;;;;;;;;;;;;;;4.76;51.45;102784.75;109069;1254;71130;-81
2023/04/03 11:22:30;;;;;;;;;;;;;;;4.76;51.97;102790.80;107971;1259;124906;-80
2023/04/03 11:24:57;;;;;;;;;;;;;;;4.84;51.52;102786.94;107964;1255;61622;-80
2023/04/03 11:27:25;;;;;;;;;;;;;;;4.78;51.21;102784.73;107981;1254;124779;-80
2023/04/03 11:29:52;;;;;;;;;;;;;;;4.63;51.05;102794.98;108202;1254;65902;-80
2023/04/03 11:32:36;;;;;;;;;;;;;;;4.53;51.40;102784.78;107908;1254;73513;-80
2023/04/03 11:35:04;;;;;;;;;;;;;;;4.53;51.51;102778.52;107924;1254;60410;-80
2023/04/03 11:37:33;;;;;;;;;;;;;;;4.57;51.73;102779.52;107628;1258;60877;-80
2023/04/03 11:40:03;;;;;;;;;;;;;;;4.67;51.99;102787.68;107595;1254;124738;-80
2023/04/03 11:42:30;;;;;;;;;;;;;;;4.75;51.66;102767.77;109000;1254;67213;-80
2023/04/03 11:45:17;;;;;;;;;;;;;;;4.80;51.18;102774.27;108465;1254;124793;-80
2023/04/03 11:47:45;;;;;;;;;;;;;;;4.75;50.92;102770.54;107689;1261;61185;-80
2023/04/03 11:50:31;;;;;;;;;;;;;;;4.81;51.27;102763.89;107733;1254;60589;-80
2023/04/03 11:52:59;;;;;;;;;;;;;;;5.08;51.70;102770.23;107889;1254;124282;-81
2023/04/03 11:55:25;;;;;;;;;;;;;;;5.26;51.57;102765.40;108034;1256;65801;-81
2023/04/03 11:57:59;;;;;;;;;;;;;;;5.34;51.78;102766.70;107923;1254;124023;-81
2023/04/03 12:00:51;;;;;;;;;;;;;;;5.44;51.72;102768.70;107871;1256;62104;-80
2023/04/03 12:03:28;;;;;;;;;;;;;;;5.41;51.29;102772.16;109200;1255;59785;-80
2023/04/03 12:06:17;;;;;;;;;;;;;;;5.34;51.41;102767.41;109241;1255;73528;-80
2023/04/03 12:08:47;;;;;;;;;;;;;;;5.44;51.68;102768.75;108840;1254;124186;-81
2023/04/03 12:11:16;;;;;;;;;;;;;;;5.53;51.24;102772.33;109053;1254;72587;-81
2023/04/03 12:13:53;;;;;;;;;;;;;;;5.46;50.85;102768.86;109099;1254;59875;-79
2023/04/03 12:16:27;;;;;;;;;;;;;;;5.34;50.43;102760.96;108986;1258;124597;-79
2023/04/03 12:18:58;;;;;;;;;;;;;;;5.26;50.66;102762.24;107698;1260;75534;-80
2023/04/03 12:21:29;;;;;;;;;;;;;;;5.24;50.83;102757.44;107434;1253;124914;-80
2023/04/03 12:24:22;;;;;;;;;;;;;;;5.25;50.50;102769.20;107839;1254;71094;-80
2023/04/03 12:27:08;;;;;;;;;;;;;;;5.21;49.67;102761.32;107595;1260;62037;-79
2023/04/03 12:29:42;;;;;;;;;;;;;;;5.20;49.58;102763.34;108191;1257;61173;-79
2023/04/03 12:32:09;;;;;;;;;;;;;;;5.23;49.63;102762.21;108012;1254;75968;-79
2023/04/03 12:34:54;;;;;;;;;;;;;;;5.03;49.13;102773.36;107949;1260;124724;-79
2023/04/03 12:37:21;;;;;;;;;;;;;;;4.65;48.78;102767.33;108020;1254;72750;-80
2023/04/03 12:39:48;;;;;;;;;;;;;;;4.55;49.36;102766.88;107790;1258;124953;-80
2023/04/03 12:42:31;;;;;;;;;;;;;;;4.71;49.64;102766.06;108004;1254;60254;-80
2023/04/03 12:45:02;;;;;;;;;;;;;;;4.90;49.56;102764.13;107964;1254;124304;-80